createdAt,value
2018-11-25T00:00:17.301Z,6.10
2018-11-25T00:02:45.835Z,6.10
2018-11-25T00:05:14.396Z,6.10
2018-11-25T00:07:42.907Z,6.10
2018-11-25T00:10:11.495Z,6.10
2018-11-25T00:12:40.045Z,6.10
2018-11-25T00:15:09.382Z,6.10
2018-11-25T00:17:37.943Z,6.10
2018-11-25T00:20:09.941Z,6.10
2018-11-25T00:22:38.472Z,6.10
2018-11-25T00:25:09.117Z,6.10
2018-11-25T00:27:37.710Z,6.20
2018-11-25T00:30:08.619Z,6.10
2018-11-25T00:32:37.178Z,6.10
2018-11-25T00:35:06.294Z,6.10
2018-11-25T00:37:34.895Z,6.00
2018-11-25T00:40:05.584Z,6.10
2018-11-25T00:42:34.145Z,6.10
2018-11-25T00:45:02.682Z,6.00
2018-11-25T00:47:31.243Z,6.00
2018-11-25T00:49:59.746Z,6.00
2018-11-25T00:52:28.289Z,6.00
2018-11-25T00:54:56.812Z,6.00
2018-11-25T00:57:25.354Z,6.00
2018-11-25T00:59:53.830Z,6.00
2018-11-25T01:02:22.490Z,5.90
2018-11-25T01:04:51.074Z,5.90
2018-11-25T01:07:19.670Z,5.90
2018-11-25T01:09:48.245Z,5.90
2018-11-25T01:12:16.775Z,5.90
2018-11-25T01:14:45.362Z,5.90
2018-11-25T01:17:13.941Z,5.80
2018-11-25T01:19:42.683Z,5.80
2018-11-25T01:22:11.291Z,5.60
2018-11-25T01:24:39.809Z,5.50
2018-11-25T01:27:08.354Z,5.50
2018-11-25T01:29:36.972Z,5.50
2018-11-25T01:32:05.503Z,5.50
2018-11-25T01:34:34.119Z,5.60
2018-11-25T01:37:02.674Z,5.50
2018-11-25T01:39:31.702Z,5.50
2018-11-25T01:42:00.573Z,5.50
2018-11-25T01:44:29.098Z,5.50
2018-11-25T01:46:57.586Z,5.50
2018-11-25T01:49:26.160Z,5.50
2018-11-25T01:51:54.708Z,5.60
2018-11-25T01:54:23.270Z,5.60
2018-11-25T01:56:51.771Z,5.60
2018-11-25T01:59:20.281Z,5.60
2018-11-25T02:01:48.836Z,5.40
2018-11-25T02:04:17.394Z,5.30
2018-11-25T02:06:45.963Z,5.20
2018-11-25T02:09:14.466Z,5.10
2018-11-25T02:11:43.036Z,5.10
2018-11-25T02:14:11.601Z,5.00
2018-11-25T02:16:40.188Z,5.00
2018-11-25T02:19:08.705Z,5.00
2018-11-25T02:21:37.213Z,5.00
2018-11-25T02:24:05.747Z,5.00
2018-11-25T02:26:34.354Z,5.00
2018-11-25T02:29:02.847Z,5.00
2018-11-25T02:31:31.358Z,5.00
2018-11-25T02:33:59.974Z,5.00
2018-11-25T02:36:28.862Z,5.00
2018-11-25T02:38:57.440Z,5.00
2018-11-25T02:41:25.936Z,5.00
2018-11-25T02:43:54.419Z,5.00
2018-11-25T02:46:22.934Z,5.00
2018-11-25T02:48:51.712Z,5.00
2018-11-25T02:51:20.122Z,4.90
2018-11-25T02:53:48.637Z,4.90
2018-11-25T02:56:17.155Z,4.80
2018-11-25T02:58:45.708Z,4.80
2018-11-25T03:01:14.310Z,4.80
2018-11-25T03:03:42.799Z,4.80
2018-11-25T03:06:11.367Z,4.80
2018-11-25T03:08:39.996Z,4.90
2018-11-25T03:11:08.589Z,4.80
2018-11-25T03:13:37.221Z,4.80
2018-11-25T03:16:05.744Z,4.80
2018-11-25T03:18:34.402Z,4.80
2018-11-25T03:21:02.980Z,4.80
2018-11-25T03:23:31.549Z,4.80
2018-11-25T03:26:00.090Z,4.80
2018-11-25T03:28:28.685Z,4.80
2018-11-25T03:30:57.186Z,4.70
2018-11-25T03:33:25.713Z,4.60
2018-11-25T03:35:54.197Z,4.60
2018-11-25T03:38:22.667Z,4.50
2018-11-25T03:40:51.293Z,4.50
2018-11-25T03:43:19.779Z,4.50
2018-11-25T03:45:48.355Z,4.50
2018-11-25T03:48:16.814Z,4.50
2018-11-25T03:50:45.326Z,4.50
2018-11-25T03:53:13.791Z,4.50
2018-11-25T03:55:42.309Z,4.50
2018-11-25T03:58:10.819Z,4.50
2018-11-25T04:00:39.387Z,4.50
2018-11-25T04:03:07.885Z,4.50
2018-11-25T04:05:36.374Z,4.60
2018-11-25T04:08:05.381Z,4.50
2018-11-25T04:10:33.888Z,4.50
2018-11-25T04:13:02.454Z,4.60
2018-11-25T04:15:31.022Z,4.60
2018-11-25T04:17:59.619Z,4.60
2018-11-25T04:20:28.121Z,4.70
2018-11-25T04:22:56.739Z,4.70
2018-11-25T04:25:25.287Z,4.80
2018-11-25T04:27:53.841Z,4.90
2018-11-25T04:30:22.457Z,5.00
2018-11-25T04:32:51.377Z,5.00
2018-11-25T04:35:19.893Z,5.00
2018-11-25T04:37:48.539Z,4.90
2018-11-25T04:40:17.987Z,4.90
2018-11-25T04:42:46.543Z,4.90
2018-11-25T04:45:15.828Z,4.80
2018-11-25T04:47:44.761Z,4.70
2018-11-25T04:50:18.219Z,4.70
2018-11-25T04:52:46.890Z,4.60
2018-11-25T04:55:15.494Z,4.50
2018-11-25T04:57:53.437Z,4.40
2018-11-25T05:00:21.985Z,4.40
2018-11-25T05:02:51.523Z,4.30
2018-11-25T05:05:20.190Z,4.40
2018-11-25T05:07:48.857Z,4.50
2018-11-25T05:10:18.132Z,4.60
2018-11-25T05:12:46.681Z,4.60
2018-11-25T05:15:19.439Z,4.70
2018-11-25T05:17:48.045Z,4.70
2018-11-25T05:20:17.733Z,4.80
2018-11-25T05:22:46.273Z,4.80
2018-11-25T05:25:15.742Z,4.80
2018-11-25T05:27:44.286Z,4.90
2018-11-25T05:30:14.108Z,4.90
2018-11-25T05:32:42.601Z,4.70
2018-11-25T05:35:12.304Z,4.70
2018-11-25T05:37:40.856Z,4.70
2018-11-25T05:40:13.788Z,4.80
2018-11-25T05:42:42.441Z,4.90
2018-11-25T05:45:12.913Z,4.80
2018-11-25T05:47:41.436Z,4.80
2018-11-25T05:50:12.288Z,4.90
2018-11-25T05:52:40.868Z,5.00
2018-11-25T05:55:10.621Z,4.90
2018-11-25T05:57:39.193Z,4.90
2018-11-25T06:00:37.724Z,5.00
2018-11-25T06:03:06.225Z,5.00
2018-11-25T06:05:34.808Z,4.90
2018-11-25T06:08:03.290Z,4.70
2018-11-25T06:10:31.865Z,4.70
2018-11-25T06:13:00.403Z,4.60
2018-11-25T06:15:28.942Z,4.40
2018-11-25T06:17:57.403Z,4.30
2018-11-25T06:20:25.958Z,4.40
2018-11-25T06:22:54.516Z,4.50
2018-11-25T06:25:23.149Z,4.60
2018-11-25T06:27:51.847Z,4.70
2018-11-25T06:30:20.988Z,4.70
2018-11-25T06:32:49.689Z,4.80
2018-11-25T06:35:19.252Z,4.90
2018-11-25T06:37:47.749Z,5.00
2018-11-25T06:40:17.095Z,4.90
2018-11-25T06:42:45.626Z,4.70
2018-11-25T06:45:16.488Z,4.60
2018-11-25T06:47:45.003Z,4.40
2018-11-25T06:50:13.685Z,4.00
2018-11-25T06:52:42.276Z,4.00
2018-11-25T06:55:12.292Z,3.90
2018-11-25T06:57:40.904Z,3.90
2018-11-25T07:00:14.718Z,3.90
2018-11-25T07:02:43.306Z,3.90
2018-11-25T07:05:11.933Z,3.90
2018-11-25T07:07:40.539Z,3.80
2018-11-25T07:10:14.402Z,3.80
2018-11-25T07:12:43.037Z,3.80
2018-11-25T07:15:14.542Z,3.90
2018-11-25T07:17:43.581Z,3.90
2018-11-25T07:20:13.278Z,4.00
2018-11-25T07:22:41.861Z,4.20
2018-11-25T07:25:11.788Z,4.50
2018-11-25T07:27:40.391Z,4.60
2018-11-25T07:30:12.601Z,4.80
2018-11-25T07:32:41.154Z,4.90
2018-11-25T07:35:09.847Z,5.00
2018-11-25T07:37:38.437Z,5.00
2018-11-25T07:40:09.807Z,5.00
2018-11-25T07:42:38.346Z,5.10
2018-11-25T07:45:09.363Z,5.20
2018-11-25T07:47:37.996Z,5.30
2018-11-25T07:50:08.378Z,5.40
2018-11-25T07:52:36.979Z,5.50
2018-11-25T07:55:09.841Z,5.50
2018-11-25T07:57:38.442Z,5.50
2018-11-25T08:00:10.900Z,5.50
2018-11-25T08:02:41.536Z,5.50
2018-11-25T08:05:09.990Z,5.60
2018-11-25T08:07:38.626Z,5.50
2018-11-25T08:10:09.763Z,5.50
2018-11-25T08:12:38.520Z,5.60
2018-11-25T08:15:09.683Z,5.60
2018-11-25T08:17:38.346Z,5.60
2018-11-25T08:20:09.491Z,5.60
2018-11-25T08:22:38.185Z,5.60
2018-11-25T08:25:10.741Z,5.70
2018-11-25T08:27:39.410Z,5.70
2018-11-25T08:30:10.963Z,5.80
2018-11-25T08:32:39.649Z,5.80
2018-11-25T08:35:09.302Z,5.90
2018-11-25T08:37:37.888Z,5.90
2018-11-25T08:40:09.958Z,6.00
2018-11-25T08:42:38.707Z,5.90
2018-11-25T08:45:09.546Z,6.00
2018-11-25T08:47:38.150Z,6.00
2018-11-25T08:50:12.061Z,6.10
2018-11-25T08:52:40.896Z,6.20
2018-11-25T08:55:12.664Z,6.20
2018-11-25T08:57:41.264Z,6.30
2018-11-25T09:00:12.369Z,6.30
2018-11-25T09:02:40.992Z,6.40
2018-11-25T09:05:11.092Z,6.50
2018-11-25T09:07:39.693Z,6.60
2018-11-25T09:10:12.259Z,6.50
2018-11-25T09:12:40.970Z,6.50
2018-11-25T09:15:17.642Z,6.70
2018-11-25T09:17:46.222Z,6.80
2018-11-25T09:20:16.443Z,7.00
2018-11-25T09:22:45.219Z,7.10
2018-11-25T09:25:18.153Z,7.20
2018-11-25T09:27:46.959Z,7.30
2018-11-25T09:30:31.214Z,7.40
2018-11-25T09:32:59.824Z,7.50
2018-11-25T09:35:28.416Z,7.50
2018-11-25T09:37:57.069Z,7.50
2018-11-25T09:40:26.635Z,7.40
2018-11-25T09:42:55.193Z,7.40
2018-11-25T09:45:23.839Z,7.30
2018-11-25T09:47:52.962Z,7.40
2018-11-25T09:50:22.555Z,7.50
2018-11-25T09:52:51.249Z,7.60
2018-11-25T09:55:21.028Z,7.70
2018-11-25T09:58:05.106Z,7.80
2018-11-25T10:00:35.110Z,7.90
2018-11-25T10:03:04.997Z,8.00
2018-11-25T10:05:33.540Z,8.10
2018-11-25T10:08:02.179Z,8.20
2018-11-25T10:10:30.768Z,8.30
2018-11-25T10:12:59.432Z,8.30
2018-11-25T10:15:28.957Z,8.40
2018-11-25T10:17:59.766Z,8.50
2018-11-25T10:20:27.453Z,8.50
2018-11-25T10:22:56.075Z,8.60
2018-11-25T10:25:24.658Z,8.60
2018-11-25T10:27:53.271Z,8.70
2018-11-25T10:30:25.131Z,8.80
2018-11-25T10:32:59.870Z,8.80
2018-11-25T10:35:28.471Z,8.90
2018-11-25T10:37:57.076Z,9.00
2018-11-25T10:40:25.911Z,9.00
2018-11-25T10:42:54.469Z,9.10
2018-11-25T10:45:25.887Z,9.20
2018-11-25T10:47:54.729Z,9.30
2018-11-25T10:50:23.413Z,9.40
2018-11-25T10:52:52.178Z,9.50
2018-11-25T10:55:21.467Z,9.60
2018-11-25T10:57:51.125Z,9.70
2018-11-25T11:00:32.435Z,9.80
2018-11-25T11:03:06.335Z,9.90
2018-11-25T11:05:40.260Z,10.00
2018-11-25T11:08:09.421Z,10.10
2018-11-25T11:10:38.159Z,10.10
2018-11-25T11:13:07.705Z,10.30
2018-11-25T11:15:36.414Z,10.30
2018-11-25T11:18:05.259Z,10.30
2018-11-25T11:20:33.992Z,10.30
2018-11-25T11:23:02.705Z,10.30
2018-11-25T11:25:31.350Z,10.40
2018-11-25T11:27:59.934Z,10.40
2018-11-25T11:30:28.586Z,10.40
2018-11-25T11:32:57.262Z,10.40
2018-11-25T11:35:25.901Z,10.40
2018-11-25T11:37:58.869Z,10.50
2018-11-25T11:40:27.857Z,10.50
2018-11-25T11:42:56.670Z,10.50
2018-11-25T11:45:25.456Z,10.50
2018-11-25T11:47:54.049Z,10.50
2018-11-25T11:50:22.977Z,10.50
2018-11-25T11:52:51.817Z,10.60
2018-11-25T11:55:20.490Z,10.60
2018-11-25T11:57:49.438Z,10.50
2018-11-25T12:00:24.431Z,10.60
2018-11-25T12:02:53.108Z,10.70
2018-11-25T12:05:21.907Z,10.70
2018-11-25T12:07:50.469Z,10.80
2018-11-25T12:10:19.670Z,10.80
2018-11-25T12:12:48.332Z,10.80
2018-11-25T12:15:21.474Z,10.90
2018-11-25T12:17:50.075Z,10.90
2018-11-25T12:20:21.464Z,10.90
2018-11-25T12:22:49.910Z,10.90
2018-11-25T12:25:18.775Z,11.00
2018-11-25T12:27:47.608Z,11.10
2018-11-25T12:30:16.873Z,11.10
2018-11-25T12:32:47.234Z,11.00
2018-11-25T12:35:16.818Z,11.00
2018-11-25T12:37:45.486Z,11.00
2018-11-25T12:40:16.050Z,11.00
2018-11-25T12:42:49.024Z,11.00
2018-11-25T12:45:19.272Z,11.10
2018-11-25T12:47:47.928Z,11.20
2018-11-25T12:50:19.218Z,11.10
2018-11-25T12:52:48.191Z,11.20
2018-11-25T12:55:18.159Z,11.20
2018-11-25T12:57:47.204Z,11.30
2018-11-25T13:00:22.206Z,11.30
2018-11-25T13:02:50.949Z,11.40
2018-11-25T13:05:19.836Z,11.30
2018-11-25T13:07:48.835Z,11.40
2018-11-25T13:10:17.490Z,11.40
2018-11-25T13:12:46.194Z,11.50
2018-11-25T13:15:15.089Z,11.40
2018-11-25T13:17:43.893Z,11.40
2018-11-25T13:20:15.130Z,11.50
2018-11-25T13:22:44.368Z,11.50
2018-11-25T13:25:15.314Z,11.60
2018-11-25T13:27:44.226Z,11.60
2018-11-25T13:30:22.212Z,11.70
2018-11-25T13:32:52.370Z,11.70
2018-11-25T13:35:21.318Z,11.80
2018-11-25T13:37:50.033Z,11.70
2018-11-25T13:40:18.983Z,11.80
2018-11-25T13:42:47.998Z,11.80
2018-11-25T13:45:17.143Z,11.90
2018-11-25T13:47:47.615Z,11.90
2018-11-25T13:50:16.778Z,11.90
2018-11-25T13:52:45.582Z,11.80
2018-11-25T13:55:20.848Z,11.80
2018-11-25T13:57:49.534Z,11.90
2018-11-25T14:00:35.385Z,11.90
2018-11-25T14:03:05.839Z,11.80
2018-11-25T14:05:34.425Z,11.90
2018-11-25T14:08:03.081Z,11.80
2018-11-25T14:10:33.197Z,11.70
2018-11-25T14:13:01.810Z,11.70
2018-11-25T14:15:30.584Z,11.70
2018-11-25T14:17:59.363Z,11.60
2018-11-25T14:20:28.246Z,11.60
2018-11-25T14:22:57.677Z,11.70
2018-11-25T14:25:27.329Z,11.70
2018-11-25T14:27:58.394Z,11.70
2018-11-25T14:30:28.790Z,11.70
2018-11-25T14:32:58.193Z,11.60
2018-11-25T14:35:32.067Z,11.60
2018-11-25T14:38:00.944Z,11.60
2018-11-25T14:40:29.775Z,11.50
2018-11-25T14:42:58.459Z,11.40
2018-11-25T14:45:27.341Z,11.40
2018-11-25T14:47:56.067Z,11.40
2018-11-25T14:50:25.658Z,11.30
2018-11-25T14:52:55.342Z,11.30
2018-11-25T14:55:24.108Z,11.20
2018-11-25T14:57:52.729Z,11.10
2018-11-25T15:00:22.371Z,11.10
2018-11-25T15:02:58.821Z,11.00
2018-11-25T15:05:38.021Z,11.00
2018-11-25T15:08:08.555Z,11.00
2018-11-25T15:10:38.055Z,10.90
2018-11-25T15:13:08.280Z,10.90
2018-11-25T15:15:36.973Z,10.90
2018-11-25T15:18:06.049Z,10.80
2018-11-25T15:20:34.625Z,10.80
2018-11-25T15:23:06.463Z,10.70
2018-11-25T15:25:37.803Z,10.70
2018-11-25T15:28:07.686Z,10.70
2018-11-25T15:30:36.355Z,10.60
2018-11-25T15:33:05.123Z,10.50
2018-11-25T15:35:33.822Z,10.40
2018-11-25T15:38:02.491Z,10.40
2018-11-25T15:40:33.702Z,10.30
2018-11-25T15:43:02.758Z,10.20
2018-11-25T15:45:31.851Z,10.20
2018-11-25T15:48:20.719Z,10.10
2018-11-25T15:50:49.480Z,10.00
2018-11-25T15:53:18.489Z,10.00
2018-11-25T15:55:49.040Z,9.90
2018-11-25T15:58:18.873Z,9.80
2018-11-25T16:00:48.010Z,9.80
2018-11-25T16:03:16.841Z,9.70
2018-11-25T16:05:47.952Z,9.70
2018-11-25T16:08:16.636Z,9.60
2018-11-25T16:10:45.610Z,9.50
2018-11-25T16:13:14.750Z,9.30
2018-11-25T16:15:43.455Z,9.20
2018-11-25T16:18:12.148Z,9.10
2018-11-25T16:20:40.821Z,9.00
2018-11-25T16:23:10.752Z,8.90
2018-11-25T16:25:47.371Z,8.80
2018-11-25T16:28:26.218Z,8.70
2018-11-25T16:30:55.080Z,8.60
2018-11-25T16:33:23.772Z,8.50
2018-11-25T16:35:53.865Z,8.40
2018-11-25T16:38:22.450Z,8.30
2018-11-25T16:40:51.022Z,8.20
2018-11-25T16:43:20.053Z,8.10
2018-11-25T16:45:48.717Z,8.00
2018-11-25T16:48:17.441Z,7.90
2018-11-25T16:50:46.055Z,7.80
2018-11-25T16:53:14.690Z,7.50
2018-11-25T16:55:43.719Z,7.40
2018-11-25T16:58:12.538Z,7.30
2018-11-25T17:00:41.193Z,7.10
2018-11-25T17:03:09.754Z,7.00
2018-11-25T17:05:41.146Z,6.90
2018-11-25T17:08:13.856Z,6.90
2018-11-25T17:10:42.487Z,6.90
2018-11-25T17:13:11.494Z,6.90
2018-11-25T17:15:40.099Z,6.90
2018-11-25T17:18:08.691Z,6.90
2018-11-25T17:20:38.070Z,6.80
2018-11-25T17:23:07.327Z,6.80
2018-11-25T17:25:36.085Z,6.70
2018-11-25T17:28:04.914Z,6.50
2018-11-25T17:30:33.775Z,6.30
2018-11-25T17:33:02.581Z,6.10
2018-11-25T17:35:32.028Z,6.10
2018-11-25T17:38:00.741Z,6.00
2018-11-25T17:40:29.294Z,5.90
2018-11-25T17:42:59.070Z,5.90
2018-11-25T17:45:28.490Z,5.90
2018-11-25T17:47:57.271Z,6.00
2018-11-25T17:50:28.430Z,6.10
2018-11-25T17:52:57.008Z,6.20
2018-11-25T17:55:28.241Z,6.20
2018-11-25T17:57:57.169Z,6.20
2018-11-25T18:00:36.600Z,6.30
2018-11-25T18:03:09.541Z,6.40
2018-11-25T18:05:38.825Z,6.50
2018-11-25T18:08:06.811Z,6.50
2018-11-25T18:10:35.639Z,6.60
2018-11-25T18:13:04.668Z,6.50
2018-11-25T18:15:33.424Z,6.50
2018-11-25T18:18:05.269Z,6.60
2018-11-25T18:20:43.941Z,6.70
2018-11-25T18:23:16.484Z,6.70
2018-11-25T18:25:45.743Z,6.90
2018-11-25T18:28:14.647Z,7.00
2018-11-25T18:30:43.974Z,7.00
2018-11-25T18:33:12.915Z,7.10
2018-11-25T18:35:42.012Z,7.20
2018-11-25T18:38:11.052Z,7.20
2018-11-25T18:40:40.237Z,7.20
2018-11-25T18:43:09.688Z,7.20
2018-11-25T18:45:38.733Z,7.20
2018-11-25T18:48:09.252Z,7.20
2018-11-25T18:50:38.874Z,7.20
2018-11-25T18:53:09.525Z,7.20
2018-11-25T18:55:37.105Z,7.20
2018-11-25T18:58:06.435Z,7.30
2018-11-25T19:00:39.242Z,7.30
2018-11-25T19:03:08.394Z,7.30
2018-11-25T19:05:37.375Z,7.30
2018-11-25T19:08:07.824Z,7.30
2018-11-25T19:10:36.709Z,7.30
2018-11-25T19:13:05.755Z,7.30
2018-11-25T19:15:37.092Z,7.20
2018-11-25T19:18:06.938Z,7.30
2018-11-25T19:20:36.191Z,7.20
2018-11-25T19:23:05.338Z,7.10
2018-11-25T19:25:34.718Z,7.10
2018-11-25T19:28:04.148Z,7.10
2018-11-25T19:30:33.161Z,7.20
2018-11-25T19:33:02.536Z,7.20
2018-11-25T19:35:31.672Z,7.20
2018-11-25T19:38:01.675Z,7.20
2018-11-25T19:40:30.795Z,7.10
2018-11-25T19:43:00.215Z,7.20
2018-11-25T19:45:29.498Z,7.20
2018-11-25T19:47:59.045Z,7.20
2018-11-25T19:50:32.305Z,7.20
2018-11-25T19:53:01.274Z,7.20
2018-11-25T19:55:44.819Z,7.20
2018-11-25T19:58:20.934Z,7.20
2018-11-25T20:00:54.746Z,7.30
2018-11-25T20:03:24.112Z,7.30
2018-11-25T20:05:56.094Z,7.30
2018-11-25T20:08:25.170Z,7.30
2018-11-25T20:10:54.208Z,7.30
2018-11-25T20:13:23.687Z,7.30
2018-11-25T20:15:53.018Z,7.30
2018-11-25T20:18:22.071Z,7.30
2018-11-25T20:22:59.535Z,7.30
2018-11-25T20:25:28.817Z,7.40
2018-11-25T20:27:59.069Z,7.30
2018-11-25T20:30:31.027Z,7.30
2018-11-25T20:33:05.342Z,7.30
2018-11-25T20:35:34.269Z,7.40
2018-11-25T20:38:08.199Z,7.40
2018-11-25T20:40:36.935Z,7.40
2018-11-25T20:43:06.075Z,7.50
2018-11-25T20:45:40.895Z,7.50
2018-11-25T20:48:09.563Z,7.50
2018-11-25T20:50:38.212Z,7.50
2018-11-25T20:53:12.094Z,7.50
2018-11-25T20:55:40.972Z,7.50
2018-11-25T20:58:09.968Z,7.50
2018-11-25T21:00:40.172Z,7.50
2018-11-25T21:03:10.726Z,7.50
2018-11-25T21:05:39.435Z,7.50
2018-11-25T21:08:08.359Z,7.40
2018-11-25T21:10:37.893Z,7.40
2018-11-25T21:13:08.194Z,7.50
2018-11-25T21:15:36.914Z,7.40
2018-11-25T21:18:06.035Z,7.40
2018-11-25T21:20:35.249Z,7.50
2018-11-25T21:23:03.778Z,7.40
2018-11-25T21:25:33.825Z,7.40
2018-11-25T21:28:02.388Z,7.50
2018-11-25T21:30:30.971Z,7.40
2018-11-25T21:32:59.552Z,7.50
2018-11-25T21:35:28.085Z,7.50
2018-11-25T21:37:56.693Z,7.50
2018-11-25T21:40:25.770Z,7.50
2018-11-25T21:42:54.335Z,7.50
2018-11-25T21:45:23.071Z,7.50
2018-11-25T21:47:51.585Z,7.50
2018-11-25T21:50:30.048Z,7.50
2018-11-25T21:52:59.430Z,7.50
2018-11-25T21:55:28.441Z,7.40
2018-11-25T21:57:57.471Z,7.40
2018-11-25T22:00:26.625Z,7.40
2018-11-25T22:02:55.731Z,7.30
2018-11-25T22:05:25.256Z,7.30
2018-11-25T22:07:54.237Z,7.30
2018-11-25T22:10:22.853Z,7.30
2018-11-25T22:12:51.566Z,7.40
2018-11-25T22:15:21.752Z,7.40
2018-11-25T22:17:50.379Z,7.50
2018-11-25T22:20:19.312Z,7.50
2018-11-25T22:22:47.857Z,7.50
2018-11-25T22:25:18.954Z,7.50
2018-11-25T22:27:47.726Z,7.40
2018-11-25T22:30:17.310Z,7.40
2018-11-25T22:32:45.940Z,7.30
2018-11-25T22:35:15.638Z,7.30
2018-11-25T22:37:44.242Z,7.30
2018-11-25T22:40:13.851Z,7.30
2018-11-25T22:42:43.541Z,7.40
2018-11-25T22:45:14.093Z,7.30
2018-11-25T22:47:42.663Z,7.40
2018-11-25T22:50:12.502Z,7.30
2018-11-25T22:52:41.058Z,7.20
2018-11-25T22:55:12.049Z,7.20
2018-11-25T22:57:40.594Z,7.30
2018-11-25T23:00:42.503Z,7.30
2018-11-25T23:03:11.065Z,7.30
2018-11-25T23:05:50.680Z,7.20
2018-11-25T23:08:19.234Z,7.20
2018-11-25T23:10:47.903Z,7.30
2018-11-25T23:13:16.651Z,7.20
2018-11-25T23:15:45.232Z,7.20
2018-11-25T23:18:13.898Z,7.20
2018-11-25T23:20:42.453Z,7.20
2018-11-25T23:23:10.970Z,7.20
2018-11-25T23:25:39.475Z,7.20
2018-11-25T23:28:08.064Z,7.20
2018-11-25T23:30:36.615Z,7.20
2018-11-25T23:33:05.247Z,7.30
2018-11-25T23:35:34.446Z,7.30
2018-11-25T23:38:02.981Z,7.30
2018-11-25T23:40:31.616Z,7.30
2018-11-25T23:43:00.179Z,7.30
2018-11-25T23:45:28.830Z,7.20
2018-11-25T23:47:57.380Z,7.20
2018-11-25T23:50:25.994Z,7.30
2018-11-25T23:52:54.581Z,7.20
2018-11-25T23:55:23.189Z,7.30
2018-11-25T23:57:51.698Z,7.30
